Time;durP1;ratioP1;P1;durP2;ratioP2;P2;SDS_P1;SDS_P2;PMS_P1;PMS_P2;Temp;Humidity;BMP_temperature;BMP_pressure;BME280_temperature;BME280_humidity;BME280_pressure;Samples;Min_cycle;Max_cycle;Signal;HPM_P1;HPM_P2
2022/05/04 00:00:36;;;;;;;5.35;3.25;;;11.10;99.90;;;;;;5068934;28;20041;-69
2022/05/04 00:03:01;;;;;;;7.03;3.60;;;11.40;99.90;;;;;;5069137;28;20054;-69
2022/05/04 00:05:27;;;;;;;6.00;3.72;;;11.50;99.90;;;;;;5069618;28;20028;-69
2022/05/04 00:07:53;;;;;;;3.67;3.30;;;11.50;99.90;;;;;;5068979;28;20045;-69
2022/05/04 00:10:19;;;;;;;4.45;3.33;;;11.60;99.90;;;;;;5068732;28;20052;-69
2022/05/04 00:12:45;;;;;;;5.70;3.38;;;11.70;99.90;;;;;;5069939;28;20048;-69
2022/05/04 00:15:11;;;;;;;3.85;3.00;;;11.70;99.90;;;;;;5069011;28;20037;-69
2022/05/04 00:17:37;;;;;;;4.25;3.28;;;11.70;99.90;;;;;;5066605;28;20047;-69
2022/05/04 00:20:03;;;;;;;10.18;5.72;;;11.70;99.90;;;;;;5072460;28;20036;-69
2022/05/04 00:22:29;;;;;;;7.13;4.40;;;11.50;99.90;;;;;;5072951;28;20044;-69
2022/05/04 00:24:55;;;;;;;7.50;4.30;;;11.40;99.90;;;;;;5072333;28;20059;-69
2022/05/04 00:27:21;;;;;;;19.23;5.53;;;11.40;99.90;;;;;;5072175;28;20044;-69
2022/05/04 00:29:47;;;;;;;8.68;5.50;;;11.50;99.90;;;;;;5073246;28;20040;-69
2022/05/04 00:32:14;;;;;;;10.07;4.82;;;11.10;99.90;;;;;;5074486;28;20059;-70
2022/05/04 00:34:40;;;;;;;6.95;3.95;;;10.60;99.90;;;;;;5073149;28;20101;-69
2022/05/04 00:37:07;;;;;;;4.40;3.63;;;10.60;99.90;;;;;;5072890;28;20442;-69
2022/05/04 00:39:33;;;;;;;4.55;3.70;;;10.60;99.90;;;;;;5073450;28;20531;-70
2022/05/04 00:42:13;;;;;;;5.25;3.85;;;10.50;99.90;;;;;;5072795;28;20048;-70
2022/05/04 00:44:40;;;;;;;6.68;3.22;;;10.80;99.90;;;;;;5069883;28;20071;-69
2022/05/04 00:47:07;;;;;;;4.90;3.40;;;10.40;99.90;;;;;;5072460;28;20037;-69
2022/05/04 00:49:33;;;;;;;10.18;3.45;;;10.40;99.90;;;;;;5071821;28;20075;-69
2022/05/04 00:52:00;;;;;;;4.05;3.28;;;10.50;99.90;;;;;;5071141;28;20192;-69
2022/05/04 00:54:26;;;;;;;7.35;3.70;;;10.50;99.90;;;;;;5072606;28;20052;-69
2022/05/04 00:56:53;;;;;;;4.50;3.95;;;10.60;99.90;;;;;;5072779;28;20032;-69
2022/05/04 00:59:21;;;;;;;7.22;3.47;;;10.80;99.90;;;;;;5071761;28;20407;-69
2022/05/04 01:01:47;;;;;;;4.50;3.22;;;10.70;99.90;;;;;;5071418;28;20036;-69
2022/05/04 01:04:13;;;;;;;6.28;3.40;;;11.00;99.90;;;;;;5069358;28;20113;-69
2022/05/04 01:06:39;;;;;;;4.57;3.38;;;11.00;99.90;;;;;;5072154;28;20078;-69
2022/05/04 01:09:05;;;;;;;4.70;3.63;;;10.90;99.90;;;;;;5071761;28;20075;-69
2022/05/04 01:11:31;;;;;;;5.70;3.60;;;10.80;99.90;;;;;;5071574;28;20047;-69
2022/05/04 01:14:02;;;;;;;7.38;4.45;;;10.80;99.90;;;;;;5071823;28;20059;-69
2022/05/04 01:16:28;;;;;;;;;;;10.70;99.90;;;;;;5072504;28;20119;-69
2022/05/04 01:18:55;;;;;;;5.60;3.80;;;10.40;99.90;;;;;;5071482;28;19915;-69
2022/05/04 01:21:21;;;;;;;5.47;3.40;;;10.40;99.90;;;;;;5073402;28;20045;-69
2022/05/04 01:23:47;;;;;;;6.68;3.67;;;10.20;99.90;;;;;;5071438;28;20081;-69
2022/05/04 01:26:17;;;;;;;6.95;3.28;;;10.40;99.90;;;;;;5071888;28;20040;-68
2022/05/04 01:28:46;;;;;;;4.07;3.40;;;10.50;99.90;;;;;;5069309;28;20522;-69
2022/05/04 01:31:12;;;;;;;4.43;3.47;;;10.30;99.90;;;;;;5071071;28;20028;-69
2022/05/04 01:33:39;;;;;;;5.03;3.40;;;10.30;99.90;;;;;;5071911;28;20047;-68
2022/05/04 01:36:06;;;;;;;5.80;3.58;;;10.50;99.90;;;;;;5074674;28;20052;-68
2022/05/04 01:38:32;;;;;;;4.47;3.55;;;10.50;99.90;;;;;;5070243;28;20029;-69
2022/05/04 01:40:58;;;;;;;5.30;3.55;;;10.70;99.90;;;;;;5056069;28;20049;-68
2022/05/04 01:43:24;;;;;;;5.30;3.20;;;10.50;99.90;;;;;;5053539;28;20538;-68
2022/05/04 01:45:50;;;;;;;4.85;3.28;;;10.50;99.90;;;;;;5052634;28;20045;-68
2022/05/04 01:48:16;;;;;;;5.55;3.40;;;10.40;99.90;;;;;;5052771;28;20072;-69
2022/05/04 01:50:42;;;;;;;3.63;3.30;;;10.30;99.90;;;;;;5057415;28;20048;-69
2022/05/04 01:53:08;;;;;;;5.25;3.50;;;10.20;99.90;;;;;;5067100;28;20045;-68
2022/05/04 01:55:34;;;;;;;4.82;3.30;;;10.20;99.90;;;;;;5053209;28;20064;-69
2022/05/04 01:58:01;;;;;;;5.03;3.58;;;10.20;99.90;;;;;;5065106;28;20111;-68
2022/05/04 02:00:27;;;;;;;3.53;3.10;;;10.30;99.90;;;;;;5066078;28;20036;-68
2022/05/04 02:02:56;;;;;;;6.00;3.33;;;10.20;99.90;;;;;;5054545;28;20037;-68
2022/05/04 02:05:22;;;;;;;5.07;3.30;;;10.40;99.90;;;;;;5053402;28;20272;-68
2022/05/04 02:07:48;;;;;;;4.85;3.55;;;10.70;99.90;;;;;;5054488;28;20044;-68
2022/05/04 02:10:15;;;;;;;4.82;3.47;;;10.70;99.90;;;;;;5054216;28;20048;-69
2022/05/04 02:12:41;;;;;;;5.43;3.33;;;10.80;99.90;;;;;;5052984;28;20041;-69
2022/05/04 02:15:10;;;;;;;7.00;3.90;;;10.70;99.90;;;;;;5054433;28;20076;-68
2022/05/04 02:17:36;;;;;;;4.20;3.33;;;10.40;99.90;;;;;;5054229;28;20048;-69
2022/05/04 02:20:02;;;;;;;4.18;3.47;;;10.20;99.90;;;;;;5053995;28;20582;-68
2022/05/04 02:22:28;;;;;;;5.60;3.60;;;10.00;99.90;;;;;;5053945;28;20036;-68
2022/05/04 02:24:53;;;;;;;5.05;3.38;;;9.90;99.90;;;;;;5054201;28;20033;-68
2022/05/04 02:27:19;;;;;;;9.63;3.20;;;10.00;99.90;;;;;;5054175;28;20102;-68
2022/05/04 02:29:45;;;;;;;5.20;3.58;;;10.00;99.90;;;;;;5054174;28;20048;-68
2022/05/04 02:32:11;;;;;;;4.15;3.47;;;9.90;99.90;;;;;;5054003;28;20064;-68
2022/05/04 02:40:06;;;;;;;4.63;3.60;;;9.80;99.90;;;;;;5053938;28;20219;-68
2022/05/04 02:42:32;;;;;;;5.25;3.55;;;10.00;99.90;;;;;;5053736;28;20163;-68
2022/05/04 02:44:58;;;;;;;4.78;3.33;;;9.90;99.90;;;;;;5053923;28;20582;-68
2022/05/04 02:47:24;;;;;;;5.72;3.20;;;10.10;99.90;;;;;;5054113;28;20029;-68
2022/05/04 02:49:50;;;;;;;4.75;3.45;;;10.10;99.90;;;;;;5053751;28;20047;-68
2022/05/04 02:52:16;;;;;;;4.90;3.60;;;10.30;99.90;;;;;;5053728;28;20448;-68
2022/05/04 02:54:41;;;;;;;5.93;3.55;;;10.40;99.90;;;;;;5053435;28;20060;-68
2022/05/04 02:57:07;;;;;;;4.38;3.40;;;10.60;99.90;;;;;;5053192;28;20032;-68
2022/05/04 02:59:33;;;;;;;5.05;3.45;;;10.70;99.90;;;;;;5053428;28;20045;-69
2022/05/04 03:04:43;;;;;;;6.47;3.42;;;10.80;99.90;;;;;;5070789;28;20474;-69
2022/05/04 03:07:09;;;;;;;4.05;3.53;;;10.10;99.90;;;;;;5073452;28;20067;-69
2022/05/04 03:09:34;;;;;;;6.07;3.92;;;9.80;99.90;;;;;;5072990;28;20048;-68
2022/05/04 03:12:01;;;;;;;3.67;3.17;;;9.80;99.90;;;;;;5072921;28;20101;-68
2022/05/04 03:14:28;;;;;;;3.78;3.40;;;9.90;99.90;;;;;;5073097;28;20409;-68
2022/05/04 03:16:55;;;;;;;5.50;3.85;;;10.00;99.90;;;;;;5073349;28;20041;-68
2022/05/04 03:19:22;;;;;;;4.50;3.33;;;9.70;99.90;;;;;;5072806;28;20034;-68
2022/05/04 03:21:49;;;;;;;4.68;3.60;;;9.40;99.90;;;;;;5072969;28;20090;-68
2022/05/04 03:24:15;;;;;;;12.60;4.35;;;9.30;99.90;;;;;;5071473;28;20093;-69
2022/05/04 03:26:41;;;;;;;4.65;3.42;;;9.40;99.90;;;;;;5072801;28;20396;-68
2022/05/04 03:29:07;;;;;;;4.90;3.92;;;9.40;99.90;;;;;;5072959;28;20041;-68
2022/05/04 03:31:33;;;;;;;4.50;3.60;;;9.60;99.90;;;;;;5073354;28;20461;-68
2022/05/04 03:33:59;;;;;;;5.47;3.95;;;9.70;99.90;;;;;;5073167;28;20051;-68
2022/05/04 03:36:25;;;;;;;4.28;3.75;;;9.70;99.90;;;;;;5072964;28;20040;-68
2022/05/04 03:38:51;;;;;;;8.35;4.28;;;9.60;99.90;;;;;;5072786;28;20036;-68
2022/05/04 03:41:17;;;;;;;7.72;3.83;;;9.50;99.90;;;;;;5073061;28;20031;-68
2022/05/04 03:43:43;;;;;;;7.50;3.58;;;9.70;99.90;;;;;;5072982;28;20059;-70
2022/05/04 03:46:15;;;;;;;5.18;4.00;;;10.00;99.90;;;;;;5072855;28;20070;-69
2022/05/04 03:48:42;;;;;;;3.85;3.35;;;10.20;99.90;;;;;;5072757;28;20101;-69
2022/05/04 03:51:09;;;;;;;5.10;3.60;;;10.50;99.90;;;;;;5072396;28;20056;-68
2022/05/04 03:53:35;;;;;;;3.85;3.35;;;10.50;99.90;;;;;;5074650;28;20048;-68
2022/05/04 03:56:01;;;;;;;5.68;3.95;;;10.50;99.90;;;;;;5076996;28;20033;-69
2022/05/04 03:58:27;;;;;;;4.93;3.33;;;10.30;99.90;;;;;;5076949;28;20106;-68
2022/05/04 04:00:52;;;;;;;6.50;3.70;;;10.00;99.90;;;;;;5076659;28;20043;-68
2022/05/04 04:03:18;;;;;;;5.65;3.72;;;9.90;99.90;;;;;;5076602;28;20454;-68
2022/05/04 04:05:44;;;;;;;5.40;3.67;;;10.00;99.90;;;;;;5076862;28;20073;-68
2022/05/04 04:08:10;;;;;;;4.95;3.95;;;10.20;99.90;;;;;;5076784;28;20036;-68
2022/05/04 04:10:35;;;;;;;5.15;3.75;;;10.20;99.90;;;;;;5076353;28;20385;-68
2022/05/04 04:13:02;;;;;;;4.38;3.97;;;10.50;99.90;;;;;;5076315;28;20101;-68
2022/05/04 04:15:28;;;;;;;5.00;4.10;;;10.40;99.90;;;;;;5076432;28;20036;-68
2022/05/04 04:17:54;;;;;;;4.70;3.60;;;10.30;99.90;;;;;;5076591;28;20040;-68
2022/05/04 04:23:04;;;;;;;6.80;4.60;;;10.00;99.90;;;;;;5076514;28;20403;-68
2022/05/04 04:25:30;;;;;;;5.53;4.32;;;9.90;99.90;;;;;;5076091;28;20127;-68
2022/05/04 04:27:57;;;;;;;5.03;3.50;;;9.90;99.90;;;;;;5074976;28;20078;-68
2022/05/04 04:30:23;;;;;;;5.55;4.15;;;9.70;99.90;;;;;;5076334;28;20045;-68
2022/05/04 04:32:49;;;;;;;5.57;3.50;;;9.80;99.90;;;;;;5076187;28;20079;-68
2022/05/04 04:35:15;;;;;;;7.35;4.47;;;10.10;99.90;;;;;;5076285;28;20408;-68
2022/05/04 04:37:40;;;;;;;6.40;4.10;;;10.20;99.90;;;;;;5076175;28;20523;-68
2022/05/04 04:40:07;;;;;;;9.00;4.30;;;10.10;99.90;;;;;;5076051;28;20049;-68
2022/05/04 04:42:33;;;;;;;5.93;4.53;;;10.00;99.90;;;;;;5075601;28;20641;-68
2022/05/04 04:44:58;;;;;;;4.47;4.00;;;9.90;99.90;;;;;;5076122;28;20115;-68
2022/05/04 04:47:25;;;;;;;7.47;4.35;;;9.90;99.90;;;;;;5075980;28;20075;-68
2022/05/04 04:49:54;;;;;;;8.30;4.00;;;9.80;99.90;;;;;;5075985;28;20032;-68
2022/05/04 04:52:20;;;;;;;19.55;4.38;;;9.60;99.90;;;;;;5075937;28;20040;-68
2022/05/04 04:54:46;;;;;;;6.28;4.22;;;9.60;99.90;;;;;;5075700;28;20056;-70
2022/05/04 04:57:12;;;;;;;7.25;4.65;;;9.60;99.90;;;;;;5075529;28;20033;-69
2022/05/04 04:59:37;;;;;;;6.53;4.55;;;9.60;99.90;;;;;;5075781;28;20047;-69
2022/05/04 05:02:03;;;;;;;7.20;4.60;;;9.40;99.90;;;;;;5075780;28;20060;-68
2022/05/04 05:04:29;;;;;;;6.88;4.25;;;9.30;99.90;;;;;;5075270;28;20044;-69
2022/05/04 05:06:55;;;;;;;5.30;4.75;;;9.10;99.90;;;;;;5068820;28;20522;-69
2022/05/04 05:09:21;;;;;;;8.15;4.38;;;9.10;99.90;;;;;;5053564;28;20033;-68
2022/05/04 05:11:46;;;;;;;6.75;4.30;;;9.00;99.90;;;;;;5054385;28;20044;-68
2022/05/04 05:16:56;;;;;;;5.32;4.57;;;9.10;99.90;;;;;;5055558;28;20554;-68
2022/05/04 05:19:22;;;;;;;5.82;4.65;;;9.30;99.90;;;;;;5055479;28;20040;-69
2022/05/04 05:21:48;;;;;;;8.38;5.57;;;9.30;99.90;;;;;;5055479;28;20500;-69
2022/05/04 05:24:14;;;;;;;5.30;4.80;;;9.50;99.90;;;;;;5055511;28;20507;-68
2022/05/04 05:26:40;;;;;;;7.15;5.30;;;9.60;99.90;;;;;;5055321;28;20508;-69
2022/05/04 05:29:06;;;;;;;11.18;5.20;;;9.60;99.90;;;;;;5055216;28;20052;-68
2022/05/04 05:31:31;;;;;;;11.50;5.10;;;9.40;99.90;;;;;;5053342;28;20511;-68
2022/05/04 05:33:57;;;;;;;8.25;5.00;;;9.50;99.90;;;;;;5052250;28;20110;-68
2022/05/04 05:36:23;;;;;;;6.07;4.70;;;;;;;;;;5069750;28;20041;-70
2022/05/04 05:38:49;;;;;;;7.32;4.72;;;9.90;99.90;;;;;;5055117;28;20055;-68
2022/05/04 05:41:15;;;;;;;7.60;4.40;;;9.90;99.90;;;;;;5055097;28;20032;-68
2022/05/04 05:43:40;;;;;;;8.65;4.43;;;9.90;99.90;;;;;;5054926;28;20044;-68
2022/05/04 05:46:06;;;;;;;5.38;4.45;;;9.70;99.90;;;;;;5054951;28;20036;-68
2022/05/04 05:48:32;;;;;;;5.70;4.53;;;9.70;99.90;;;;;;5054976;28;20043;-69
2022/05/04 05:50:58;;;;;;;5.10;4.38;;;9.70;99.90;;;;;;5054582;28;20115;-68
2022/05/04 05:53:23;;;;;;;6.88;4.28;;;9.60;99.90;;;;;;5054474;28;20048;-68
2022/05/04 05:55:49;;;;;;;7.45;4.47;;;9.60;99.90;;;;;;5054426;28;20116;-68
2022/05/04 05:58:15;;;;;;;4.75;4.25;;;9.80;99.90;;;;;;5054349;28;20554;-68
2022/05/04 06:00:41;;;;;;;7.40;4.65;;;9.90;99.90;;;;;;5054734;28;20074;-68
2022/05/04 06:03:07;;;;;;;5.90;4.70;;;10.00;99.90;;;;;;5054653;28;20041;-68
2022/05/04 06:05:33;;;;;;;6.97;4.53;;;10.00;99.90;;;;;;5063000;28;20385;-68
2022/05/04 06:07:59;;;;;;;4.93;4.43;;;10.10;99.90;;;;;;5074238;28;20032;-68
2022/05/04 06:10:24;;;;;;;6.93;4.85;;;10.20;99.90;;;;;;5074118;28;20040;-69
2022/05/04 06:12:50;;;;;;;7.30;4.78;;;10.30;99.90;;;;;;5074132;28;20082;-68
2022/05/04 06:15:16;;;;;;;6.13;4.72;;;10.50;99.90;;;;;;5073740;28;20071;-68
2022/05/04 06:17:44;;;;;;;5.22;4.35;;;10.50;99.90;;;;;;5074261;28;20040;-68
2022/05/04 06:20:10;;;;;;;5.97;4.95;;;10.60;99.90;;;;;;5074378;28;20074;-68
2022/05/04 06:22:36;;;;;;;4.72;4.13;;;10.80;99.90;;;;;;5071250;28;20039;-69
2022/05/04 06:25:02;;;;;;;5.00;4.18;;;10.90;99.90;;;;;;5057514;28;20041;-69
2022/05/04 06:27:32;;;;;;;7.78;4.72;;;11.10;99.90;;;;;;5053263;28;20642;-68
2022/05/04 06:35:27;;;;;;;5.82;4.90;;;12.20;99.90;;;;;;5051328;28;20056;-69
2022/05/04 06:37:53;;;;;;;6.93;4.70;;;12.60;99.90;;;;;;5048915;28;20404;-69
2022/05/04 06:40:20;;;;;;;36.10;23.10;;;12.70;99.90;;;;;;5051638;28;20047;-69
2022/05/04 06:42:46;;;;;;;13.95;10.90;;;12.70;99.90;;;;;;5051064;28;20039;-69
2022/05/04 06:45:12;;;;;;;10.30;7.07;;;12.70;99.90;;;;;;5070949;28;20131;-69
2022/05/04 06:47:38;;;;;;;5.85;4.82;;;12.90;99.90;;;;;;5063276;28;20112;-69
2022/05/04 06:50:04;;;;;;;5.35;4.68;;;12.80;99.90;;;;;;5063783;28;20049;-69
2022/05/04 06:52:31;;;;;;;5.28;4.32;;;12.70;99.90;;;;;;5051198;28;20531;-69
2022/05/04 06:54:57;;;;;;;8.55;4.72;;;12.70;99.90;;;;;;5052041;28;20056;-69
2022/05/04 06:57:23;;;;;;;5.40;4.13;;;12.60;99.90;;;;;;5051890;28;20052;-69
2022/05/04 06:59:49;;;;;;;7.22;4.00;;;12.50;99.90;;;;;;5051379;28;20408;-69
2022/05/04 07:02:15;;;;;;;5.70;4.03;;;12.80;99.90;;;;;;5051875;28;20119;-69
2022/05/04 07:04:41;;;;;;;8.20;3.95;;;12.90;99.90;;;;;;5051596;28;20064;-70
2022/05/04 07:07:07;;;;;;;6.80;4.20;;;13.00;99.90;;;;;;5052348;28;20649;-70
2022/05/04 07:09:36;;;;;;;7.45;4.32;;;13.30;99.90;;;;;;5051055;28;20047;-69
2022/05/04 07:12:02;;;;;;;6.43;4.82;;;13.70;99.90;;;;;;5049196;28;20049;-69
2022/05/04 07:14:28;;;;;;;7.25;5.15;;;13.90;99.90;;;;;;5050774;28;20671;-69
2022/05/04 07:16:53;;;;;;;9.13;5.05;;;14.20;99.90;;;;;;5050743;28;20044;-69
2022/05/04 07:19:19;;;;;;;8.20;5.20;;;14.30;99.90;;;;;;5051343;28;20056;-69
2022/05/04 07:21:45;;;;;;;8.40;4.75;;;14.30;99.90;;;;;;5049496;28;20041;-71
2022/05/04 07:24:11;;;;;;;7.25;5.70;;;14.50;99.90;;;;;;5051398;28;20055;-70
2022/05/04 07:26:41;;;;;;;7.55;5.18;;;14.80;99.90;;;;;;5052674;28;20041;-71
2022/05/04 07:29:07;;;;;;;32.00;14.35;;;15.50;99.90;;;;;;5051148;28;20091;-71
2022/05/04 07:31:34;;;;;;;10.63;5.55;;;15.40;99.90;;;;;;5049262;28;20041;-70
2022/05/04 07:34:00;;;;;;;6.35;4.75;;;15.90;99.90;;;;;;5051400;28;20437;-70
2022/05/04 07:36:25;;;;;;;11.52;6.78;;;16.20;99.90;;;;;;5050709;28;20037;-70
2022/05/04 07:38:51;;;;;;;9.02;4.60;;;15.80;99.90;;;;;;5051056;28;20044;-70
2022/05/04 07:44:01;;;;;;;12.90;8.13;;;16.50;99.90;;;;;;5051046;28;20040;-70
2022/05/04 07:46:29;;;;;;;27.50;14.35;;;16.40;99.90;;;;;;5052542;28;20041;-70
2022/05/04 07:48:58;;;;;;;8.90;5.47;;;16.20;99.90;;;;;;5052827;28;20037;-70
2022/05/04 07:51:24;;;;;;;8.60;5.60;;;15.80;99.90;;;;;;5052007;28;20128;-70
2022/05/04 07:53:50;;;;;;;44.10;19.48;;;16.00;99.90;;;;;;5051717;28;20452;-70
2022/05/04 07:56:16;;;;;;;18.98;8.85;;;15.50;99.90;;;;;;5051079;28;20083;-70
2022/05/04 07:58:42;;;;;;;25.92;13.48;;;15.70;99.90;;;;;;5050806;28;20029;-70
2022/05/04 08:06:36;;;;;;;9.45;5.30;;;15.80;99.90;;;;;;5050103;28;20047;-70
2022/05/04 08:09:03;;;;;;;5.70;4.32;;;15.90;99.90;;;;;;5050967;28;20423;-70
2022/05/04 08:11:29;;;;;;;9.23;4.75;;;16.30;99.90;;;;;;5051230;28;20041;-71
2022/05/04 08:13:55;;;;;;;6.50;4.45;;;16.70;99.90;;;;;;5050516;28;20076;-70
2022/05/04 08:16:21;;;;;;;12.25;6.53;;;16.80;99.90;;;;;;5051147;28;20095;-70
2022/05/04 08:18:47;;;;;;;26.30;11.32;;;16.90;99.90;;;;;;5051883;28;20603;-70
2022/05/04 08:21:14;;;;;;;11.25;7.55;;;16.80;99.90;;;;;;5050252;28;20087;-69
2022/05/04 08:23:40;;;;;;;6.38;4.72;;;17.20;99.90;;;;;;5050590;28;20041;-70
2022/05/04 08:26:05;;;;;;;7.85;4.47;;;17.60;99.90;;;;;;5052604;28;20032;-71
2022/05/04 08:28:31;;;;;;;6.63;3.80;;;17.70;99.90;;;;;;5071806;28;20495;-70
2022/05/04 08:30:57;;;;;;;9.23;6.10;;;18.20;99.90;;;;;;5072421;28;20495;-70
2022/05/04 08:33:23;;;;;;;8.30;4.72;;;18.50;99.90;;;;;;5072231;28;20048;-70
2022/05/04 08:35:49;;;;;;;6.03;4.40;;;18.20;99.90;;;;;;5070789;28;20045;-70
2022/05/04 08:38:15;;;;;;;9.45;6.03;;;17.90;99.90;;;;;;5070750;28;20495;-70
2022/05/04 08:40:41;;;;;;;15.60;9.00;;;17.60;99.90;;;;;;5073827;28;20036;-70
2022/05/04 08:43:09;;;;;;;7.78;4.78;;;17.30;99.90;;;;;;5074580;28;20169;-70
2022/05/04 08:45:40;;;;;;;7.18;5.15;;;17.40;99.90;;;;;;5075492;28;20032;-70
2022/05/04 08:48:09;;;;;;;9.18;6.95;;;18.00;99.90;;;;;;5074289;28;20475;-70
2022/05/04 08:50:37;;;;;;;5.97;5.05;;;18.60;99.90;;;;;;5073338;28;20045;-70
2022/05/04 08:53:04;;;;;;;6.82;4.65;;;18.90;99.90;;;;;;5075525;28;20033;-70
2022/05/04 08:55:30;;;;;;;7.03;4.00;;;19.00;99.90;;;;;;5074139;28;20048;-70
2022/05/04 08:57:56;;;;;;;8.40;5.03;;;19.10;99.90;;;;;;5074342;28;20040;-70
2022/05/04 09:00:23;;;;;;;12.07;7.97;;;19.00;99.90;;;;;;5073900;28;20039;-70
2022/05/04 09:02:49;;;;;;;9.57;6.30;;;19.00;99.90;;;;;;5073382;28;20040;-71
2022/05/04 09:05:25;;;;;;;5.78;3.75;;;19.30;99.90;;;;;;5073269;28;20120;-72
2022/05/04 09:07:57;;;;;;;6.30;4.68;;;19.90;99.90;;;;;;5073423;28;20151;-71
2022/05/04 09:10:26;;;;;;;5.65;3.95;;;;;;;;;;5073467;28;20040;-72
2022/05/04 09:12:54;;;;;;;4.43;3.97;;;19.60;99.90;;;;;;5073341;28;20106;-72
2022/05/04 09:15:24;;;;;;;10.93;4.05;;;19.60;99.90;;;;;;5074146;28;20044;-70
2022/05/04 09:17:56;;;;;;;4.22;3.83;;;20.20;99.90;;;;;;5073897;28;20045;-70
2022/05/04 09:20:45;;;;;;;8.18;3.45;;;20.10;99.90;;;;;;5072729;28;20044;-70
2022/05/04 09:23:19;;;;;;;4.60;3.42;;;19.80;99.90;;;;;;5075430;28;20036;-71
2022/05/04 09:25:49;;;;;;;7.97;3.78;;;19.60;99.90;;;;;;5075519;28;20086;-71
2022/05/04 09:28:15;;;;;;;5.77;3.53;;;19.60;99.90;;;;;;5075847;28;20094;-71
2022/05/04 09:30:51;;;;;;;4.45;3.00;;;19.80;99.90;;;;;;5075336;28;20044;-71
2022/05/04 09:33:21;;;;;;;3.60;3.05;;;19.60;99.90;;;;;;5075319;28;20127;-71
2022/05/04 09:35:48;;;;;;;3.90;3.07;;;18.60;99.90;;;;;;5075098;28;20045;-70
2022/05/04 09:46:39;;;;;;;3.53;3.10;;;19.10;99.90;;;;;;5074936;28;20044;-70
2022/05/04 09:49:30;;;;;;;4.18;3.40;;;19.00;99.90;;;;;;5074851;28;20054;-70
2022/05/04 09:51:56;;;;;;;4.65;3.35;;;19.20;99.90;;;;;;5074259;28;20079;-70
2022/05/04 09:54:30;;;;;;;7.20;3.30;;;18.70;99.90;;;;;;5074848;28;20149;-70
2022/05/04 09:56:57;;;;;;;5.13;3.60;;;18.50;99.90;;;;;;5063614;28;20120;-70
2022/05/04 09:59:26;;;;;;;4.85;3.30;;;18.90;99.90;;;;;;5054732;28;20037;-70
2022/05/04 10:01:54;;;;;;;5.93;3.58;;;19.30;99.90;;;;;;5054574;28;20040;-71
2022/05/04 10:04:21;;;;;;;7.30;3.90;;;19.20;99.90;;;;;;5054518;28;20045;-70
2022/05/04 10:06:50;;;;;;;5.47;3.65;;;18.70;99.90;;;;;;5056229;28;20095;-70
2022/05/04 10:09:16;;;;;;;4.53;3.58;;;18.40;99.90;;;;;;5074643;28;20032;-70
2022/05/04 10:11:42;;;;;;;4.30;3.22;;;18.90;99.90;;;;;;5074485;28;20592;-71
2022/05/04 10:14:12;;;;;;;7.57;4.35;;;19.30;99.90;;;;;;5074266;28;20060;-71
2022/05/04 10:16:44;;;;;;;5.80;3.47;;;;;;;;;;5072998;28;20043;-70
2022/05/04 10:19:37;;;;;;;5.13;3.47;;;20.70;99.90;;;;;;5071663;28;20052;-73
2022/05/04 10:22:08;;;;;;;5.47;4.00;;;20.90;99.90;;;;;;5057365;28;20043;-72
2022/05/04 10:24:35;;;;;;;4.28;3.45;;;21.20;99.90;;;;;;5054353;28;20037;-71
2022/05/04 10:27:22;;;;;;;3.88;3.58;;;21.20;99.50;;;;;;5054214;28;20037;-70
2022/05/04 10:30:48;;;;;;;4.47;3.70;;;20.90;99.00;;;;;;5054220;28;20523;-70
2022/05/04 10:33:02;;;;;;;6.47;3.97;;;21.90;99.90;;;;;;5051012;28;20045;-70
2022/05/04 10:35:48;;;;;;;4.80;3.47;;;22.10;99.90;;;;;;5053926;28;20145;-71
2022/05/04 10:38:26;;;;;;;7.57;3.17;;;21.80;99.40;;;;;;5053982;28;20055;-71
2022/05/04 10:40:57;;;;;;;4.18;3.35;;;22.10;98.20;;;;;;5054024;28;20047;-70
2022/05/04 10:43:43;;;;;;;11.27;4.25;;;21.70;97.70;;;;;;5052698;28;20119;-70
2022/05/04 10:46:19;;;;;;;9.77;4.28;;;21.90;99.40;;;;;;5053577;28;20036;-70
2022/05/04 10:48:51;;;;;;;5.70;3.92;;;19.90;99.90;;;;;;5053634;28;20507;-69
2022/05/04 10:51:18;;;;;;;5.43;4.03;;;18.90;99.90;;;;;;5053501;28;20123;-70
2022/05/04 10:53:46;;;;;;;8.90;4.43;;;17.90;99.90;;;;;;5063982;28;20036;-71
2022/05/04 10:56:18;;;;;;;3.95;3.22;;;;;;;;;;5073266;28;20041;-70
2022/05/04 10:58:53;;;;;;;5.10;3.33;;;17.40;99.90;;;;;;5073291;28;20070;-70
2022/05/04 11:01:31;;;;;;;6.30;3.10;;;17.10;99.90;;;;;;5072187;28;20488;-70
2022/05/04 11:04:06;;;;;;;5.18;3.22;;;16.80;99.90;;;;;;5071397;28;20043;-69
2022/05/04 11:06:37;;;;;;;4.78;2.80;;;16.70;99.90;;;;;;5071178;28;20125;-71
2022/05/04 11:09:18;;;;;;;11.13;3.45;;;16.60;99.90;;;;;;5071369;28;20039;-70
2022/05/04 11:11:48;;;;;;;3.80;3.40;;;16.40;99.90;;;;;;5071574;28;20044;-70
2022/05/04 11:14:17;;;;;;;8.57;3.50;;;16.30;99.90;;;;;;5072863;28;20050;-69
2022/05/04 11:16:45;;;;;;;4.20;3.50;;;16.20;99.90;;;;;;5071187;28;20060;-70
2022/05/04 11:19:14;;;;;;;3.80;3.10;;;16.10;99.90;;;;;;5071172;28;20044;-70
2022/05/04 11:21:41;;;;;;;9.03;4.40;;;15.90;99.90;;;;;;5072921;28;20036;-70
2022/05/04 11:24:09;;;;;;;7.18;3.60;;;15.90;99.90;;;;;;5072993;28;20278;-69
2022/05/04 11:26:45;;;;;;;10.45;3.65;;;15.70;99.90;;;;;;5072483;28;20035;-69
2022/05/04 11:29:16;;;;;;;6.28;3.65;;;15.60;99.90;;;;;;5071420;28;20404;-69
2022/05/04 11:31:47;;;;;;;5.70;3.67;;;15.50;99.90;;;;;;5069373;28;20048;-69
2022/05/04 11:34:17;;;;;;;3.75;3.45;;;15.40;99.90;;;;;;5067805;28;20056;-69
2022/05/04 11:36:45;;;;;;;6.60;4.30;;;15.60;99.90;;;;;;5050343;28;20542;-69
2022/05/04 11:39:15;;;;;;;6.03;4.35;;;16.00;99.90;;;;;;5050296;28;20496;-69
2022/05/04 11:41:44;;;;;;;26.95;13.73;;;15.90;99.90;;;;;;5050122;28;20041;-69
2022/05/04 11:44:10;;;;;;;27.88;14.40;;;16.10;99.90;;;;;;5050127;28;20044;-69
2022/05/04 11:46:36;;;;;;;34.85;18.40;;;15.90;99.90;;;;;;5049335;28;20036;-69
2022/05/04 11:49:02;;;;;;;12.77;6.63;;;16.00;99.90;;;;;;5049410;28;20080;-69
2022/05/04 11:51:28;;;;;;;33.67;16.45;;;16.00;99.90;;;;;;5050643;28;20028;-68
2022/05/04 11:53:53;;;;;;;50.60;23.13;;;15.90;99.90;;;;;;5050555;28;20041;-69
2022/05/04 11:56:19;;;;;;;25.70;13.38;;;15.80;99.90;;;;;;5050536;28;20041;-69
2022/05/04 11:58:45;;;;;;;30.30;15.15;;;15.60;99.90;;;;;;5049873;28;20128;-69
2022/05/04 12:01:13;;;;;;;20.65;10.48;;;15.80;99.90;;;;;;5049487;28;20127;-68
2022/05/04 12:03:39;;;;;;;34.90;17.08;;;16.00;99.90;;;;;;5048933;28;20051;-69
2022/05/04 12:06:09;;;;;;;45.60;20.85;;;15.90;99.90;;;;;;5049732;28;20033;-69
2022/05/04 12:08:36;;;;;;;44.85;19.58;;;16.10;99.90;;;;;;5048651;28;20679;-70
2022/05/04 12:11:05;;;;;;;9.82;5.82;;;16.00;99.90;;;;;;5050262;28;20535;-70
2022/05/04 12:13:31;;;;;;;55.67;23.58;;;16.10;99.90;;;;;;5049714;28;20071;-69
2022/05/04 12:15:59;;;;;;;11.38;5.70;;;16.00;99.90;;;;;;5054513;28;20048;-70
2022/05/04 12:18:31;;;;;;;13.70;7.35;;;15.80;99.90;;;;;;5053727;28;20094;-69
2022/05/04 12:21:06;;;;;;;4.82;3.10;;;15.90;99.90;;;;;;5054484;28;20496;-70
2022/05/04 12:23:33;;;;;;;14.30;7.25;;;15.80;99.90;;;;;;5053006;28;20579;-70
2022/05/04 12:25:58;;;;;;;28.33;11.48;;;15.70;99.90;;;;;;5054511;28;20037;-70
2022/05/04 12:28:24;;;;;;;56.15;19.40;;;15.70;99.90;;;;;;5054457;28;20045;-70
2022/05/04 12:33:39;;;;;;;51.08;15.80;;;15.70;99.90;;;;;;5053874;28;20448;-69
2022/05/04 12:36:09;;;;;;;14.17;5.13;;;;;;;;;;5054435;28;20048;-71
2022/05/04 12:38:37;;;;;;;9.30;4.70;;;15.50;99.90;;;;;;5054374;28;20711;-69
2022/05/04 12:41:05;;;;;;;8.43;3.00;;;15.20;99.90;;;;;;5054441;28;20061;-69
2022/05/04 12:43:36;;;;;;;7.32;4.20;;;15.40;99.90;;;;;;5055784;28;20098;-70
2022/05/04 12:46:03;;;;;;;;;;;15.80;99.90;;;;;;5056707;28;20044;-69
2022/05/04 12:48:29;;;;;;;4.05;3.60;;;15.80;99.90;;;;;;5056223;28;20379;-70
2022/05/04 12:50:59;;;;;;;5.30;3.85;;;15.90;99.90;;;;;;5056032;28;20087;-69
2022/05/04 12:53:26;;;;;;;4.75;3.20;;;16.10;99.90;;;;;;5067535;28;20380;-69
2022/05/04 12:58:37;;;;;;;17.83;8.13;;;16.90;99.90;;;;;;5075036;28;20105;-69
2022/05/04 13:01:04;;;;;;;13.02;8.10;;;17.50;99.90;;;;;;5074763;28;20044;-69
2022/05/04 13:03:30;;;;;;;11.27;6.15;;;17.80;99.90;;;;;;5075684;28;20054;-69
2022/05/04 13:05:56;;;;;;;8.00;5.53;;;18.00;99.90;;;;;;5066111;28;20500;-69
2022/05/04 13:08:22;;;;;;;9.05;5.18;;;17.90;99.90;;;;;;5055731;28;20094;-69
2022/05/04 13:10:49;;;;;;;6.72;3.80;;;18.30;99.90;;;;;;5055530;28;20045;-69
2022/05/04 13:13:20;;;;;;;12.55;5.47;;;18.30;99.90;;;;;;5057265;28;20536;-69
2022/05/04 13:15:47;;;;;;;10.68;6.45;;;18.40;99.90;;;;;;5061642;28;20110;-69
2022/05/04 13:18:13;;;;;;;6.22;4.95;;;18.60;99.90;;;;;;5055712;28;20391;-69
2022/05/04 13:20:40;;;;;;;8.00;4.35;;;18.60;99.90;;;;;;5055542;28;20107;-69
2022/05/04 13:23:07;;;;;;;6.78;5.10;;;18.70;99.90;;;;;;5055410;28;20044;-69
2022/05/04 13:25:33;;;;;;;9.30;4.30;;;18.80;99.90;;;;;;5053972;28;20504;-69
2022/05/04 13:27:59;;;;;;;7.90;4.55;;;18.90;99.90;;;;;;5059969;28;20045;-69
2022/05/04 13:30:26;;;;;;;7.25;5.03;;;18.90;99.90;;;;;;5075011;28;20127;-68